Time;durP1;ratioP1;P1;durP2;ratioP2;P2;SDS_P1;SDS_P2;PMS_P1;PMS_P2;Temp;Humidity;BMP_temperature;BMP_pressure;BME280_temperature;BME280_humidity;BME280_pressure;Samples;Min_cycle;Max_cycle;Signal;HPM_P1;HPM_P2
2023/09/29 05:28:38;;;;;;;;;23.75;20.50;;;;;;;;5084600;27;14348;-78
2023/09/29 05:31:04;;;;;;;;;22.25;18.00;;;;;;;;5087802;28;11523;-82
2023/09/29 05:33:29;;;;;;;;;28.75;24.50;;;;;;;;5087930;28;8818;-79
2023/09/29 05:35:55;;;;;;;;;28.25;24.50;;;;;;;;5086462;28;8795;-76
2023/09/29 05:38:21;;;;;;;;;26.25;22.25;;;;;;;;5087954;28;8806;-77
2023/09/29 05:40:49;;;;;;;;;30.00;25.50;;;;;;;;5086016;28;8822;-80
2023/09/29 05:43:15;;;;;;;;;24.00;22.50;;;;;;;;5087565;28;8797;-75
2023/09/29 05:45:40;;;;;;;;;22.75;21.75;;;;;;;;5086206;28;11511;-81
2023/09/29 05:48:06;;;;;;;;;19.25;19.25;;;;;;;;5084908;28;8866;-83
2023/09/29 07:53:21;;;;;;;;;24.50;24.00;;;;;;;;5106083;27;13547;-80
2023/09/29 07:57:16;;;;;;;;;29.25;23.50;;;;;;;;5085109;27;13502;-81
2023/09/29 07:59:41;;;;;;;;;24.50;22.50;;;;;;;;5088175;28;11463;-81
2023/09/29 08:04:27;;;;;;;;;27.00;23.25;;;;;;;;5105448;27;13425;-81
2023/09/29 08:06:52;;;;;;;;;24.00;20.50;;;;;;;;5108642;28;11834;-81
2023/09/29 08:09:17;;;;;;;;;24.75;23.00;;;;;;;;5108412;28;8792;-81
2023/09/29 08:11:43;;;;;;;;;26.00;22.00;;;;;;;;5108120;28;8792;-82
2023/09/29 08:14:08;;;;;;;;;24.00;21.50;;;;;;;;5108230;28;8807;-83
2023/09/29 08:16:34;;;;;;;;;21.50;19.50;;;;;;;;5108233;28;8815;-84
2023/09/29 08:18:59;;;;;;;;;20.33;19.00;;;;;;;;5106829;28;8811;-83
2023/09/29 08:21:25;;;;;;;;;22.00;19.00;;;;;;;;5108160;28;8776;-83
2023/09/29 08:23:50;;;;;;;;;19.67;18.00;;;;;;;;5106733;28;8826;-81
2023/09/29 08:26:16;;;;;;;;;22.00;18.00;;;;;;;;5107835;28;9572;-82
2023/09/29 08:28:42;;;;;;;;;17.75;17.50;;;;;;;;5107864;28;8780;-82
2023/09/29 08:31:16;;;;;;;;;16.00;15.00;;;;;;;;5107847;28;8788;-81
2023/09/29 08:33:42;;;;;;;;;20.25;17.50;;;;;;;;5107883;28;8780;-82
2023/09/29 08:36:07;;;;;;;;;20.33;18.33;;;;;;;;5107828;28;8811;-81
2023/09/29 08:38:33;;;;;;;;;19.67;16.00;;;;;;;;5107981;28;8890;-81
2023/09/29 08:41:01;;;;;;;;;16.00;16.00;;;;;;;;5112995;28;8789;-81
2023/09/29 08:43:28;;;;;;;;;17.50;15.25;;;;;;;;5097806;28;8818;-81
2023/09/29 08:45:56;;;;;;;;;19.75;18.75;;;;;;;;5087338;28;8871;-81
2023/09/29 08:48:21;;;;;;;;;14.50;13.75;;;;;;;;5086063;28;9557;-81
2023/09/29 08:50:55;;;;;;;;;22.00;21.33;;;;;;;;5087255;28;8794;-82
2023/09/29 08:53:21;;;;;;;;;25.00;22.75;;;;;;;;5087513;28;8816;-82
2023/09/29 08:55:48;;;;;;;;;22.50;22.50;;;;;;;;5087222;28;8852;-81
2023/09/29 08:58:14;;;;;;;;;22.75;22.75;;;;;;;;5087313;28;8790;-82
2023/09/29 09:00:39;;;;;;;;;25.00;24.67;;;;;;;;5085806;28;8891;-82
2023/09/29 09:03:05;;;;;;;;;27.67;25.00;;;;;;;;5085677;28;8849;-81
2023/09/29 09:05:30;;;;;;;;;31.00;26.33;;;;;;;;5087093;28;8837;-82
2023/09/29 09:07:58;;;;;;;;;25.67;25.00;;;;;;;;5085607;28;8822;-82
2023/09/29 09:10:31;;;;;;;;;23.50;21.00;;;;;;;;5086875;28;8879;-81
2023/09/29 09:12:56;;;;;;;;;24.25;21.25;;;;;;;;5085765;28;8907;-82
2023/09/29 09:15:25;;;;;;;;;21.33;21.33;;;;;;;;5075944;28;8798;-82
2023/09/29 09:17:51;;;;;;;;;22.00;21.50;;;;;;;;5072037;28;8807;-82
2023/09/29 09:20:16;;;;;;;;;22.67;20.67;;;;;;;;5071886;28;8829;-81
2023/09/29 09:22:42;;;;;;;;;18.67;17.33;;;;;;;;5073137;28;8822;-82
2023/09/29 09:25:08;;;;;;;;;19.00;17.00;;;;;;;;5073066;28;8932;-82
2023/09/29 09:27:38;;;;;;;;;16.00;15.60;;;;;;;;5071680;28;9640;-81
2023/09/29 09:30:04;;;;;;;;;15.75;15.75;;;;;;;;5073017;28;8791;-82
2023/09/29 09:32:30;;;;;;;;;19.67;19.33;;;;;;;;5072931;28;9638;-82
2023/09/29 09:34:55;;;;;;;;;16.50;15.00;;;;;;;;5071634;28;8818;-82
2023/09/29 09:37:24;;;;;;;;;39.67;32.33;;;;;;;;5072882;28;8925;-82
2023/09/29 09:39:49;;;;;;;;;18.60;17.60;;;;;;;;5072946;28;8790;-83
2023/09/29 09:42:15;;;;;;;;;16.25;16.00;;;;;;;;5092692;28;8944;-82
2023/09/29 09:44:42;;;;;;;;;16.25;15.50;;;;;;;;5093001;28;8907;-82
2023/09/29 09:47:12;;;;;;;;;16.00;15.40;;;;;;;;5093014;28;8779;-83
2023/09/29 09:49:44;;;;;;;;;14.80;13.80;;;;;;;;5092980;28;8792;-82
2023/09/29 09:52:15;;;;;;;;;16.80;14.40;;;;;;;;5092682;28;8776;-83
2023/09/29 09:54:54;;;;;;;;;14.80;14.40;;;;;;;;5091567;28;8803;-82
2023/09/29 09:57:30;;;;;;;;;14.20;14.00;;;;;;;;5092977;28;8772;-82
2023/09/29 10:00:00;;;;;;;;;16.00;15.00;;;;;;;;5091499;28;8904;-83
2023/09/29 10:02:26;;;;;;;;;13.40;13.40;;;;;;;;5092292;28;8827;-82
2023/09/29 10:04:52;;;;;;;;;14.00;14.00;;;;;;;;5091388;28;9595;-81
2023/09/29 10:07:17;;;;;;;;;15.50;14.00;;;;;;;;5091442;28;8934;-81
2023/09/29 10:09:48;;;;;;;;;14.50;14.25;;;;;;;;5092771;28;8772;-85
2023/09/29 10:12:27;;;;;;;;;13.80;13.40;;;;;;;;5092469;28;8780;-85
2023/09/29 10:14:52;;;;;;;;;13.00;12.80;;;;;;;;5091594;28;8926;-84
2023/09/29 10:17:18;;;;;;;;;12.00;12.00;;;;;;;;5092372;28;8919;-85
2023/09/29 10:19:45;;;;;;;;;13.25;13.25;;;;;;;;5092901;28;8796;-85
2023/09/29 10:22:20;;;;;;;;;12.80;12.80;;;;;;;;5092693;28;11558;-85
2023/09/29 10:24:46;;;;;;;;;13.20;11.60;;;;;;;;5092849;28;8792;-84
2023/09/29 10:27:13;;;;;;;;;13.75;12.75;;;;;;;;5091485;28;8884;-85
2023/09/29 10:29:40;;;;;;;;;15.00;14.40;;;;;;;;5092935;28;8823;-85
2023/09/29 10:32:20;;;;;;;;;14.60;13.80;;;;;;;;5091170;28;8784;-86
2023/09/29 10:34:46;;;;;;;;;13.40;12.80;;;;;;;;5092350;28;8918;-81
2023/09/29 10:37:13;;;;;;;;;15.75;14.00;;;;;;;;5090839;28;8787;-86
2023/09/29 10:39:39;;;;;;;;;16.60;15.00;;;;;;;;5090780;28;9573;-74
2023/09/29 10:42:14;;;;;;;;;15.20;12.60;;;;;;;;5091407;28;8890;-80
2023/09/29 10:44:56;;;;;;;;;13.25;13.00;;;;;;;;5091857;28;8788;-79
2023/09/29 10:47:34;;;;;;;;;14.75;14.75;;;;;;;;5091781;28;8871;-79
2023/09/29 10:50:03;;;;;;;;;16.00;15.50;;;;;;;;5090473;28;8826;-79
2023/09/29 10:52:29;;;;;;;;;14.75;14.50;;;;;;;;5090291;28;9632;-73
2023/09/29 10:54:58;;;;;;;;;16.00;15.00;;;;;;;;5091583;28;8756;-81
2023/09/29 10:57:25;;;;;;;;;16.50;16.50;;;;;;;;5091750;28;8792;-71
2023/09/29 10:59:51;;;;;;;;;25.25;25.00;;;;;;;;5090629;28;8788;-71
2023/09/29 11:02:17;;;;;;;;;21.50;20.00;;;;;;;;5089403;28;8804;-72
2023/09/29 11:04:46;;;;;;;;;15.00;13.00;;;;;;;;5090958;28;8800;-71
2023/09/29 11:07:15;;;;;;;;;28.75;26.00;;;;;;;;5089226;28;8807;-71
2023/09/29 11:09:40;;;;;;;;;19.50;19.00;;;;;;;;5090854;28;8830;-71
2023/09/29 11:12:06;;;;;;;;;27.00;25.00;;;;;;;;5090604;28;9475;-71
2023/09/29 11:14:35;;;;;;;;;29.00;28.67;;;;;;;;5090681;28;8948;-69
2023/09/29 11:17:00;;;;;;;;;14.00;13.50;;;;;;;;5090645;28;8910;-71
2023/09/29 11:19:30;;;;;;;;;15.67;15.00;;;;;;;;5090897;28;8915;-71
2023/09/29 11:21:55;;;;;;;;;25.50;23.50;;;;;;;;5090587;28;8823;-70
2023/09/29 11:24:20;;;;;;;;;18.33;17.67;;;;;;;;5090770;28;8870;-73
2023/09/29 11:26:51;;;;;;;;;26.00;25.33;;;;;;;;5087361;28;8800;-76
2023/09/29 11:29:28;;;;;;;;;22.33;21.67;;;;;;;;5088633;28;8950;-76
2023/09/29 11:31:53;;;;;;;;;28.67;25.67;;;;;;;;5088900;28;9060;-75
2023/09/29 11:34:19;;;;;;;;;27.50;26.50;;;;;;;;5088749;28;9075;-76
2023/09/29 11:36:44;;;;;;;;;26.25;23.50;;;;;;;;5089999;28;8765;-77
2023/09/29 11:39:16;;;;;;;;;17.75;15.50;;;;;;;;5090669;28;8827;-75
2023/09/29 11:41:41;;;;;;;;;26.50;26.00;;;;;;;;5089993;28;8820;-79
2023/09/29 11:44:07;;;;;;;;;20.00;19.75;;;;;;;;5090546;28;9748;-82
2023/09/29 11:46:32;;;;;;;;;54.25;40.25;;;;;;;;5090777;28;8800;-79
2023/09/29 11:48:57;;;;;;;;;30.50;28.50;;;;;;;;5090544;28;8808;-77
2023/09/29 11:51:22;;;;;;;;;19.67;18.67;;;;;;;;5090571;28;9502;-78
2023/09/29 11:53:49;;;;;;;;;30.00;27.00;;;;;;;;5088741;28;8847;-77
2023/09/29 11:56:14;;;;;;;;;22.00;21.75;;;;;;;;5089372;28;8792;-78
2023/09/29 11:58:40;;;;;;;;;26.50;24.50;;;;;;;;5090127;28;10900;-77
2023/09/29 12:01:06;;;;;;;;;14.67;11.33;;;;;;;;5089581;28;8977;-77
2023/09/29 12:03:33;;;;;;;;;24.25;23.25;;;;;;;;5088133;28;8836;-78
2023/09/29 12:06:02;;;;;;;;;23.00;23.00;;;;;;;;5089719;28;10442;-78
2023/09/29 12:08:28;;;;;;;;;13.00;12.33;;;;;;;;5089577;28;9890;-78
2023/09/29 12:10:53;;;;;;;;;15.00;13.33;;;;;;;;5089657;28;9035;-78
2023/09/29 12:13:18;;;;;;;;;9.00;8.67;;;;;;;;5089172;28;11498;-78
2023/09/29 12:15:44;;;;;;;;;10.33;9.67;;;;;;;;5089836;28;8915;-77
2023/09/29 12:18:10;;;;;;;;;3.67;3.67;;;;;;;;5089526;28;9687;-79
2023/09/29 12:20:36;;;;;;;;;10.50;8.50;;;;;;;;5089750;28;8814;-81
2023/09/29 12:23:01;;;;;;;;;7.00;6.00;;;;;;;;5089826;28;8836;-82
2023/09/29 12:25:27;;;;;;;;;8.00;8.00;;;;;;;;5089910;28;8823;-82
2023/09/29 12:27:52;;;;;;;;;9.00;9.00;;;;;;;;5089405;28;8810;-77
2023/09/29 12:30:18;;;;;;;;;9.00;8.33;;;;;;;;5090273;28;8796;-79
2023/09/29 12:32:44;;;;;;;;;9.25;8.00;;;;;;;;5088877;28;8890;-80
2023/09/29 12:35:12;;;;;;;;;11.33;9.00;;;;;;;;5088773;28;8799;-73
2023/09/29 12:37:38;;;;;;;;;9.75;8.00;;;;;;;;5091089;28;11115;-77
2023/09/29 12:40:04;;;;;;;;;8.00;8.00;;;;;;;;5082319;28;8850;-77
2023/09/29 12:42:30;;;;;;;;;9.00;9.00;;;;;;;;5069210;28;8830;-78
2023/09/29 12:44:56;;;;;;;;;9.25;8.00;;;;;;;;5067959;28;8798;-80
2023/09/29 12:47:21;;;;;;;;;10.67;9.00;;;;;;;;5069294;28;8886;-71
2023/09/29 12:49:47;;;;;;;;;15.67;15.00;;;;;;;;5070794;28;9800;-71
2023/09/29 12:52:13;;;;;;;;;9.67;9.00;;;;;;;;5072853;28;8787;-71
2023/09/29 12:54:39;;;;;;;;;11.00;8.00;;;;;;;;5073378;28;8857;-71
2023/09/29 12:57:05;;;;;;;;;10.00;8.67;;;;;;;;5073546;28;8826;-71
2023/09/29 12:59:34;;;;;;;;;11.00;11.00;;;;;;;;5091069;28;8792;-71
2023/09/29 13:01:59;;;;;;;;;11.00;9.50;;;;;;;;5093612;28;8823;-70
2023/09/29 13:04:28;;;;;;;;;13.67;13.67;;;;;;;;5093494;28;8832;-70
2023/09/29 13:06:54;;;;;;;;;10.25;10.25;;;;;;;;5093518;28;8898;-71
2023/09/29 13:09:20;;;;;;;;;12.67;11.00;;;;;;;;5093203;28;8893;-71
2023/09/29 13:11:48;;;;;;;;;9.00;8.50;;;;;;;;5093292;28;8787;-71
2023/09/29 13:14:14;;;;;;;;;10.00;9.00;;;;;;;;5093197;28;8816;-71
2023/09/29 13:16:39;;;;;;;;;10.33;10.00;;;;;;;;5093331;28;8876;-71
2023/09/29 13:19:05;;;;;;;;;10.00;8.33;;;;;;;;5093255;28;9605;-71
2023/09/29 13:21:33;;;;;;;;;10.00;8.67;;;;;;;;5093157;28;8791;-71
2023/09/29 13:23:59;;;;;;;;;12.00;11.00;;;;;;;;5092523;28;8827;-70
2023/09/29 13:26:24;;;;;;;;;6.67;6.67;;;;;;;;5090953;28;8917;-71
2023/09/29 13:28:50;;;;;;;;;9.00;8.00;;;;;;;;5091014;28;8780;-71
2023/09/29 13:31:15;;;;;;;;;8.00;8.00;;;;;;;;5091951;28;8800;-71
2023/09/29 13:33:40;;;;;;;;;10.00;9.00;;;;;;;;5093026;28;8824;-70
2023/09/29 13:36:06;;;;;;;;;18.67;15.33;;;;;;;;5092268;28;8792;-71
2023/09/29 13:38:31;;;;;;;;;12.67;9.00;;;;;;;;5089667;28;8873;-71
2023/09/29 13:40:57;;;;;;;;;9.00;9.00;;;;;;;;5091585;28;8812;-71
2023/09/29 13:43:24;;;;;;;;;10.67;10.67;;;;;;;;5092263;28;8820;-71
2023/09/29 13:45:49;;;;;;;;;8.50;8.50;;;;;;;;5091810;28;9001;-71
2023/09/29 13:48:15;;;;;;;;;12.33;11.33;;;;;;;;5091401;28;8942;-71
2023/09/29 13:50:40;;;;;;;;;7.00;7.00;;;;;;;;5091315;28;8827;-71
2023/09/29 13:53:06;;;;;;;;;9.67;9.00;;;;;;;;5089712;28;8796;-71
2023/09/29 13:55:31;;;;;;;;;9.33;9.33;;;;;;;;5092281;28;8804;-71
2023/09/29 13:57:57;;;;;;;;;11.00;11.00;;;;;;;;5092451;28;8788;-70
2023/09/29 14:00:23;;;;;;;;;7.25;7.25;;;;;;;;5089874;28;8835;-70
2023/09/29 14:02:49;;;;;;;;;8.00;8.00;;;;;;;;5090903;28;8848;-70
2023/09/29 14:05:15;;;;;;;;;8.00;8.00;;;;;;;;5092531;28;8804;-78
2023/09/29 14:07:40;;;;;;;;;9.67;9.67;;;;;;;;5094061;28;8820;-77
2023/09/29 14:10:06;;;;;;;;;11.33;9.33;;;;;;;;5091540;28;8820;-69
2023/09/29 14:12:36;;;;;;;;;18.33;17.00;;;;;;;;5090969;28;8816;-70
2023/09/29 14:15:02;;;;;;;;;10.00;10.00;;;;;;;;5090815;28;9543;-71
2023/09/29 14:17:27;;;;;;;;;10.00;8.00;;;;;;;;5091074;28;8780;-71
2023/09/29 14:19:52;;;;;;;;;10.00;8.00;;;;;;;;5092102;28;8959;-74
2023/09/29 14:22:18;;;;;;;;;9.00;7.33;;;;;;;;5091696;28;8927;-70
2023/09/29 14:24:43;;;;;;;;;10.33;9.00;;;;;;;;5090650;28;8812;-71
2023/09/29 14:27:09;;;;;;;;;13.00;11.33;;;;;;;;5091743;28;8815;-70
2023/09/29 14:29:34;;;;;;;;;9.67;8.00;;;;;;;;5091931;28;8830;-71
2023/09/29 14:32:00;;;;;;;;;9.00;9.00;;;;;;;;5090516;28;8930;-72
2023/09/29 14:34:25;;;;;;;;;16.00;14.67;;;;;;;;5091771;28;8783;-77
2023/09/29 14:36:50;;;;;;;;;14.67;14.67;;;;;;;;5091644;28;8780;-71
2023/09/29 14:39:16;;;;;;;;;9.00;7.67;;;;;;;;5091779;28;8772;-74
2023/09/29 14:41:42;;;;;;;;;9.33;8.00;;;;;;;;5089973;28;8824;-74
2023/09/29 14:44:07;;;;;;;;;12.75;11.50;;;;;;;;5092781;28;8942;-69
2023/09/29 14:46:33;;;;;;;;;8.00;8.00;;;;;;;;5093339;28;8930;-76
2023/09/29 14:48:59;;;;;;;;;12.33;10.00;;;;;;;;5090523;28;8835;-71
2023/09/29 14:51:25;;;;;;;;;9.75;9.25;;;;;;;;5088265;28;8808;-76
2023/09/29 14:53:52;;;;;;;;;11.00;11.00;;;;;;;;5089808;28;8808;-69
2023/09/29 14:56:17;;;;;;;;;9.25;7.75;;;;;;;;5089125;28;8841;-74
2023/09/29 14:58:43;;;;;;;;;6.67;6.67;;;;;;;;5089470;28;9510;-79
2023/09/29 15:01:09;;;;;;;;;8.67;8.67;;;;;;;;5091300;28;8824;-74
2023/09/29 15:03:34;;;;;;;;;8.00;8.00;;;;;;;;5089674;28;8844;-75
2023/09/29 15:06:00;;;;;;;;;9.00;8.00;;;;;;;;5091035;28;8800;-74
2023/09/29 15:08:29;;;;;;;;;10.75;8.75;;;;;;;;5089473;28;8836;-75
2023/09/29 15:10:54;;;;;;;;;8.75;8.50;;;;;;;;5089447;28;8816;-82
2023/09/29 15:13:20;;;;;;;;;10.00;9.67;;;;;;;;5090293;28;8803;-75
2023/09/29 15:15:45;;;;;;;;;12.67;12.00;;;;;;;;5089863;28;8812;-82
2023/09/29 15:18:10;;;;;;;;;9.00;9.00;;;;;;;;5090880;28;8900;-71
2023/09/29 15:20:36;;;;;;;;;8.00;8.00;;;;;;;;5089247;28;8776;-76
2023/09/29 15:23:02;;;;;;;;;9.00;9.00;;;;;;;;5089509;28;8845;-81
2023/09/29 15:25:27;;;;;;;;;18.67;18.00;;;;;;;;5091104;28;9648;-76
2023/09/29 15:27:53;;;;;;;;;9.00;8.67;;;;;;;;5090423;28;8760;-83
2023/09/29 15:30:18;;;;;;;;;11.00;9.33;;;;;;;;5088136;28;8839;-82
2023/09/29 15:32:43;;;;;;;;;9.67;9.67;;;;;;;;5091047;28;9604;-82
2023/09/29 15:35:11;;;;;;;;;10.67;8.67;;;;;;;;5091233;28;8796;-83
2023/09/29 15:37:36;;;;;;;;;8.75;8.75;;;;;;;;5091207;28;8807;-83
2023/09/29 15:40:03;;;;;;;;;17.33;16.67;;;;;;;;5090820;28;9522;-83
2023/09/29 15:42:29;;;;;;;;;9.50;8.25;;;;;;;;5091024;28;8791;-84
2023/09/29 15:44:55;;;;;;;;;11.33;9.00;;;;;;;;5091092;28;8901;-84
2023/09/29 15:47:20;;;;;;;;;8.00;8.00;;;;;;;;5091267;28;8909;-84
2023/09/29 15:49:46;;;;;;;;;11.00;9.67;;;;;;;;5091219;28;8777;-84
2023/09/29 15:52:13;;;;;;;;;9.00;9.00;;;;;;;;5090944;28;8796;-80
2023/09/29 15:54:38;;;;;;;;;9.00;8.00;;;;;;;;5090878;28;8946;-79
